Wetterstation Vordersexau
Wetterdaten: September 2012
Datum Temp. A. Feuchte A. Luftdruck Regen Wind Richtung Taupunkt Windchill Windben
01.09.2012 13,5 C 78 % 1020,2 hPa 2,5 l/m 0,0 km/h N-NO 9,6 C 13,5 C 0,0 km/h
02.09.2012 15,9 C 78 % 1020,9 hPa 0,0 l/m 0,0 km/h W-NW 12,0 C 15,9 C 0,0 km/h
03.09.2012 19,0 C 73 % 1019,5 hPa 0,0 l/m 0,0 km/h N-NO 14,0 C 19,0 C 0,0 km/h
04.09.2012 20,0 C 71 % 1016,9 hPa 0,0 l/m 0,0 km/h N-NO 14,1 C 20,0 C 0,0 km/h
05.09.2012 19,8 C 69 % 1016,7 hPa 0,0 l/m 0,0 km/h N-NO 13,6 C 19,8 C 0,0 km/h
06.09.2012 18,9 C 67 % 1021,8 hPa 0,0 l/m 0,0 km/h N-NO 11,9 C 18,9 C 0,0 km/h
07.09.2012 18,0 C 64 % 1022,6 hPa 0,0 l/m 0,0 km/h NO 9,9 C 18,0 C 0,0 km/h
08.09.2012 19,3 C 65 % 1019,1 hPa 0,0 l/m 0,0 km/h W 11,4 C 19,3 C 0,0 km/h
09.09.2012 21,2 C 63 % 1014,5 hPa 0,0 l/m 0,0 km/h SO 12,8 C 21,2 C 0,0 km/h
10.09.2012 22,6 C 62 % 1014,3 hPa 0,0 l/m 0,0 km/h SO 13,5 C 22,6 C 0,0 km/h
11.09.2012 18,1 C 74 % 1013,3 hPa 6,8 l/m 0,0 km/h SO 13,3 C 18,1 C 0,0 km/h
12.09.2012 13,8 C 78 % 1013,5 hPa 1,1 l/m 0,0 km/h NO 10,0 C 13,8 C 0,0 km/h
13.09.2012 13,7 C 68 % 1014,6 hPa 1,8 l/m 2,1 km/h O 7,2 C 13,4 C 1,2 km/h
14.09.2012 14,5 C 65 % 1015,4 hPa 0,0 l/m 4,3 km/h SO 7,1 C 13,9 C 2,4 km/h
15.09.2012 17,2 C 70 % 1015,9 hPa 0,4 l/m 0,4 km/h N-NO 10,9 C 17,2 C 0,2 km/h
16.09.2012 16,8 C 68 % 1014,0 hPa 0,4 l/m 0,5 km/h N-NO 10,0 C 16,8 C 0,3 km/h
17.09.2012 19,1 C 65 % 1012,7 hPa 0,0 l/m 0,6 km/h SO 11,6 C 19,1 C 0,4 km/h
18.09.2012 17,8 C 71 % 1011,1 hPa 22,4 l/m 2,9 km/h SO 11,9 C 17,6 C 1,6 km/h
19.09.2012 14,1 C 68 % 1017,2 hPa 3,6 l/m 0,3 km/h N-NO 7,8 C 14,1 C 0,2 km/h
20.09.2012 12,4 C 67 % 1020,9 hPa 0,0 l/m 2,1 km/h NO 5,7 C 12,3 C 1,2 km/h
21.09.2012 15,6 C 67 % 1014,6 hPa 1,4 l/m 2,3 km/h SO 8,8 C 15,5 C 1,3 km/h
22.09.2012 14,8 C 75 % 1013,7 hPa 12,5 l/m 0,2 km/h SO 10,2 C 14,8 C 0,1 km/h
23.09.2012 15,7 C 74 % 1010,5 hPa 0,4 l/m 0,1 km/h O-NO 10,8 C 15,7 C 0,1 km/h
24.09.2012 16,3 C 69 % 1001,5 hPa 3,9 l/m 7,3 km/h SW 10,6 C 15,2 C 4,0 km/h
25.09.2012 15,0 C 70 % 1001,6 hPa 8,2 l/m 4,6 km/h W 9,3 C 14,2 C 2,5 km/h
26.09.2012 12,6 C 77 % 1001,5 hPa 1,8 l/m 0,8 km/h W 8,6 C 12,6 C 0,5 km/h
27.09.2012 13,2 C 72 % 1009,7 hPa 3,2 l/m 7,0 km/h O-SO 8,2 C 11,9 C 3,9 km/h
28.09.2012 15,9 C 66 % 1016,4 hPa 0,0 l/m 1,2 km/h SO 8,7 C 15,6 C 0,7 km/h
29.09.2012 11,6 C 76 % 1015,9 hPa 0,0 l/m 0,2 km/h O-SO 7,5 C 11,6 C 0,1 km/h
30.09.2012 10,0 C 80 % 1018,6 hPa 0,0 l/m 1,0 km/h SO 6,7 C 9,9 C 0,5 km/h
Min-Datum 20.09.12 10.09.12 26.09.12 15 Tage 01.09.12 - 30.09.12 27.09.12 01.09.12
Min-Zeit 07:19 16:19 05:19 - 00:19 - 06:19 01:19 00:19
Minimum 3,8 C 23 % 998,4 hPa - 0,0 km/h - 0,9 C 2,2 C 0,0 km/h
Max-Datum 10.09.12 12.09.12 07.09.12 18.09.12 24.09.12 - 05.09.12 10.09.12 24.09.12
Max-Zeit 16:19 07:19 09:19 22:19 15:19 - 13:19 16:19 15:19
Maximum 37,9 C 84 % 1023,7 hPa 22,4 l/m 35,6 km/h
SW
- 18,2 C 37,9 C 19,8 km/h
SW
Durchschnitt 16,2 C 70 % 1014,6 hPa #70,1 l/m 1,3 km/h SO 10,3 C 16,0 C 0,7 km/h

Durchschnitt Minimum Temp.9,2 C
Durchschnitt Maximum Temp.26,6 C
www.sexauwetter.de